Time;durP1;ratioP1;P1;durP2;ratioP2;P2;SDS_P1;SDS_P2;PMS_P1;PMS_P2;Temp;Humidity;BMP_temperature;BMP_pressure;BME280_temperature;BME280_humidity;BME280_pressure;Samples;Min_cycle;Max_cycle;Signal;HPM_P1;HPM_P2
2023/09/13 00:02:07;;;;;;;;;;;;;;;29.85;41.14;94180.69;4938917;28;8036;-61
2023/09/13 00:04:59;;;;;;;;;;;;;;;29.84;40.84;94190.31;5000013;28;8858;-61
2023/09/13 00:07:29;;;;;;;;;;;;;;;29.84;41.88;94184.78;5019754;28;7017;-61
2023/09/13 00:09:55;;;;;;;;;;;;;;;29.83;41.09;94191.59;5031827;28;6976;-61
2023/09/13 00:12:26;;;;;;;;;;;;;;;29.79;41.79;94183.63;5021469;28;7047;-61
2023/09/13 00:14:59;;;;;;;;;;;;;;;29.81;41.68;94175.50;5016560;28;7478;-61
2023/09/13 00:17:27;;;;;;;;;;;;;;;29.80;41.27;94166.44;5035801;28;6975;-61
2023/09/13 00:19:59;;;;;;;;;;;;;;;29.81;41.54;94169.97;5028792;28;8037;-61
2023/09/13 00:22:38;;;;;;;;;;;;;;;29.80;41.43;94169.22;5015906;28;7069;-61
2023/09/13 00:25:19;;;;;;;;;;;;;;;29.79;41.55;94170.50;5023194;28;9009;-61
2023/09/13 00:27:58;;;;;;;;;;;;;;;29.78;40.61;94171.78;5014837;28;7312;-61
2023/09/13 00:30:33;;;;;;;;;;;;;;;29.79;41.39;94176.06;4997064;28;7041;-61
2023/09/13 00:33:00;;;;;;;;;;;;;;;29.79;41.30;94173.28;5013715;28;8973;-61
2023/09/13 00:35:45;;;;;;;;;;;;;;;29.79;41.75;94186.41;5017157;28;7338;-61
2023/09/13 00:38:12;;;;;;;;;;;;;;;29.79;41.13;94191.94;5034016;28;7024;-61
2023/09/13 00:40:41;;;;;;;;;;;;;;;29.78;41.19;94187.66;5035650;28;7476;-61
2023/09/13 00:43:17;;;;;;;;;;;;;;;29.76;40.87;94176.38;5031846;28;7578;-61
2023/09/13 00:46:02;;;;;;;;;;;;;;;29.78;40.98;94185.66;5018004;28;7328;-61
2023/09/13 00:48:34;;;;;;;;;;;;;;;29.76;41.08;94179.91;5033213;28;7232;-62
2023/09/13 00:51:11;;;;;;;;;;;;;;;29.76;41.03;94184.69;5034261;28;7005;-61
2023/09/13 00:53:39;;;;;;;;;;;;;;;29.75;41.23;94174.91;5032330;28;7248;-61
2023/09/13 00:56:06;;;;;;;;;;;;;;;29.69;41.59;94161.16;5033833;28;7517;-62
2023/09/13 00:58:51;;;;;;;;;;;;;;;29.71;40.65;94168.94;5021444;28;8746;-61
2023/09/13 01:01:41;;;;;;;;;;;;;;;29.73;40.45;94175.41;5012828;28;7163;-61
2023/09/13 01:04:07;;;;;;;;;;;;;;;29.71;41.27;94182.81;5021128;28;7237;-61
2023/09/13 01:06:37;;;;;;;;;;;;;;;29.72;41.15;94192.59;5033927;28;7464;-57
2023/09/13 01:09:14;;;;;;;;;;;;;;;29.71;40.60;94197.38;5033308;28;7228;-58
2023/09/13 01:11:58;;;;;;;;;;;;;;;29.70;41.14;94201.47;5031473;28;9184;-57
2023/09/13 01:14:27;;;;;;;;;;;;;;;29.74;40.75;94212.97;5049257;28;7077;-57
2023/09/13 01:17:09;;;;;;;;;;;;;;;29.74;40.48;94209.47;5033757;28;7320;-57
2023/09/13 01:23:41;;;;;;;;;;;;;;;29.72;40.35;94209.22;5033492;28;8776;-57
2023/09/13 01:26:44;;;;;;;;;;;;;;;29.72;41.08;94209.22;5027803;28;7213;-57
2023/09/13 01:29:16;;;;;;;;;;;;;;;29.69;41.61;94221.38;5024609;28;7737;-57
2023/09/13 01:31:45;;;;;;;;;;;;;;;29.67;40.80;94210.09;5025426;28;7273;-57
2023/09/13 01:34:11;;;;;;;;;;;;;;;29.69;41.31;94210.31;5027799;28;9182;-57
2023/09/13 01:36:41;;;;;;;;;;;;;;;29.68;41.32;94208.84;5033043;28;7166;-57
2023/09/13 01:39:24;;;;;;;;;;;;;;;29.69;41.26;94213.06;5019579;28;7420;-58
2023/09/13 01:42:21;;;;;;;;;;;;;;;29.68;41.57;94211.59;5033878;28;9380;-57
2023/09/13 01:45:14;;;;;;;;;;;;;;;29.70;40.48;94214.56;5033260;28;7059;-57
2023/09/13 01:48:11;;;;;;;;;;;;;;;29.69;41.51;94216.59;5016121;28;6980;-57
2023/09/13 01:50:48;;;;;;;;;;;;;;;29.69;41.35;94219.38;4982107;28;7276;-57
2023/09/13 01:53:19;;;;;;;;;;;;;;;29.68;41.28;94217.16;4999233;28;9228;-57
2023/09/13 01:55:45;;;;;;;;;;;;;;;29.68;41.21;94222.69;4991561;28;8811;-57
2023/09/13 01:58:14;;;;;;;;;;;;;;;29.68;41.53;94225.47;4992677;28;7592;-57
2023/09/13 02:00:59;;;;;;;;;;;;;;;29.67;41.27;94229.50;4991562;28;7311;-57
2023/09/13 02:03:35;;;;;;;;;;;;;;;29.67;41.02;94240.59;4981751;28;7792;-57
2023/09/13 02:06:49;;;;;;;;;;;;;;;29.67;41.63;94241.34;4991913;28;7317;-57
2023/09/13 02:09:46;;;;;;;;;;;;;;;29.67;41.68;94235.81;4993405;28;7263;-57
2023/09/13 02:12:22;;;;;;;;;;;;;;;29.66;41.23;94234.31;4910512;29;8816;-57
2023/09/13 02:14:50;;;;;;;;;;;;;;;29.66;41.01;94236.34;4918261;29;8391;-62
2023/09/13 02:17:47;;;;;;;;;;;;;;;29.64;41.60;94241.69;4919716;29;9092;-62
2023/09/13 02:20:14;;;;;;;;;;;;;;;29.65;41.26;94232.06;4892502;29;8851;-62
2023/09/13 02:22:54;;;;;;;;;;;;;;;29.65;41.03;94227.28;4902115;29;7240;-62
2023/09/13 02:25:47;;;;;;;;;;;;;;;29.64;41.03;94220.28;4917546;29;7241;-62
2023/09/13 02:28:18;;;;;;;;;;;;;;;29.61;40.66;94217.81;4964948;28;7266;-62
2023/09/13 02:30:46;;;;;;;;;;;;;;;29.60;40.87;94210.81;4940760;28;9393;-62
2023/09/13 02:33:15;;;;;;;;;;;;;;;29.61;41.01;94218.56;4945020;28;9108;-62
2023/09/13 02:35:42;;;;;;;;;;;;;;;29.57;41.16;94209.09;4955333;28;7191;-62
2023/09/13 02:38:10;;;;;;;;;;;;;;;29.60;41.27;94214.28;4946975;28;9135;-62
2023/09/13 02:40:38;;;;;;;;;;;;;;;29.61;40.61;94215.78;4956092;28;7319;-62
2023/09/13 02:43:33;;;;;;;;;;;;;;;29.63;41.23;94223.56;4952959;28;8894;-62
2023/09/13 02:46:02;;;;;;;;;;;;;;;29.62;41.05;94216.53;4854558;29;7320;-63
2023/09/13 02:48:34;;;;;;;;;;;;;;;29.63;40.92;94224.31;4870990;29;7331;-62
2023/09/13 02:51:02;;;;;;;;;;;;;;;29.62;40.74;94217.28;4908283;29;7879;-62
2023/09/13 02:53:31;;;;;;;;;;;;;;;29.60;41.31;94219.84;4910901;29;9115;-62
2023/09/13 02:56:09;;;;;;;;;;;;;;;29.55;40.54;94220.00;4898070;29;7101;-62
2023/09/13 02:58:41;;;;;;;;;;;;;;;29.54;40.93;94232.34;4897255;29;8849;-63
2023/09/13 03:01:10;;;;;;;;;;;;;;;29.50;41.03;94226.41;4888915;29;9313;-63
2023/09/13 03:04:13;;;;;;;;;;;;;;;29.49;41.74;94227.72;4898742;29;7324;-63
2023/09/13 03:06:59;;;;;;;;;;;;;;;29.47;41.88;94219.91;4899448;29;9038;-62
2023/09/13 03:09:28;;;;;;;;;;;;;;;29.46;41.11;94214.91;4894759;29;7095;-62
2023/09/13 03:12:07;;;;;;;;;;;;;;;29.45;41.26;94210.69;4918060;29;9088;-62
2023/09/13 03:14:34;;;;;;;;;;;;;;;29.44;41.64;94209.19;4912807;29;8738;-62
2023/09/13 03:17:02;;;;;;;;;;;;;;;29.42;41.13;94197.91;4916280;29;6998;-62
2023/09/13 03:19:30;;;;;;;;;;;;;;;29.42;41.69;94209.72;4900812;29;8496;-62
2023/09/13 03:22:01;;;;;;;;;;;;;;;29.42;41.39;94208.97;4946899;28;9133;-62
2023/09/13 03:24:35;;;;;;;;;;;;;;;29.43;41.14;94213.22;5005542;28;7269;-65
2023/09/13 03:27:15;;;;;;;;;;;;;;;29.41;40.90;94204.72;5034148;28;8798;-65
2023/09/13 03:29:44;;;;;;;;;;;;;;;29.39;40.78;94201.72;5021018;28;7474;-65
2023/09/13 03:32:20;;;;;;;;;;;;;;;29.37;41.47;94201.53;5018386;28;7001;-65
2023/09/13 03:34:46;;;;;;;;;;;;;;;29.37;41.01;94205.06;5035378;28;8916;-65
2023/09/13 03:37:16;;;;;;;;;;;;;;;29.39;42.00;94204.50;5035605;28;7190;-65
2023/09/13 03:39:46;;;;;;;;;;;;;;;29.42;41.44;94203.44;5033486;28;7037;-65
2023/09/13 03:42:46;;;;;;;;;;;;;;;29.41;40.80;94210.25;5009531;28;9420;-64
2023/09/13 03:45:51;;;;;;;;;;;;;;;29.37;41.73;94196.75;5025721;28;7176;-64
2023/09/13 03:48:22;;;;;;;;;;;;;;;29.36;41.26;94211.88;5034246;28;9071;-64
2023/09/13 03:51:18;;;;;;;;;;;;;;;29.40;40.68;94208.78;5034650;28;9094;-64
2023/09/13 03:54:21;;;;;;;;;;;;;;;29.39;40.93;94205.25;4993980;28;8731;-64
2023/09/13 03:56:47;;;;;;;;;;;;;;;29.37;41.35;94199.50;4974291;28;8786;-64
2023/09/13 03:59:31;;;;;;;;;;;;;;;29.37;41.09;94201.53;4990495;28;7092;-64
2023/09/13 04:01:57;;;;;;;;;;;;;;;29.39;41.04;94201.72;5013377;28;7197;-64
2023/09/13 04:04:40;;;;;;;;;;;;;;;29.42;40.75;94198.66;4996351;28;8747;-64
2023/09/13 04:07:41;;;;;;;;;;;;;;;29.43;40.83;94210.44;4974050;28;9073;-64
2023/09/13 04:10:19;;;;;;;;;;;;;;;29.41;41.26;94201.94;4925227;28;9071;-64
2023/09/13 04:13:00;;;;;;;;;;;;;;;29.43;41.12;94207.69;4951445;28;7197;-64
2023/09/13 04:15:27;;;;;;;;;;;;;;;29.44;41.22;94206.41;4954025;28;7026;-64
2023/09/13 04:18:22;;;;;;;;;;;;;;;29.47;40.71;94216.41;4954031;28;7065;-64
2023/09/13 04:21:00;;;;;;;;;;;;;;;29.44;40.79;94218.25;4912068;29;9109;-64
2023/09/13 04:23:26;;;;;;;;;;;;;;;29.42;40.96;94217.28;4909291;29;7218;-65
2023/09/13 04:26:07;;;;;;;;;;;;;;;29.42;41.74;94225.59;4919043;29;8820;-66
2023/09/13 04:28:33;;;;;;;;;;;;;;;29.42;42.13;94220.06;4912796;29;7359;-65
2023/09/13 04:31:10;;;;;;;;;;;;;;;29.43;42.18;94227.06;4927634;28;7222;-65
2023/09/13 04:33:54;;;;;;;;;;;;;;;29.39;41.93;94226.66;4933108;28;7792;-65
2023/09/13 04:36:54;;;;;;;;;;;;;;;29.44;42.66;94234.88;4928623;28;6986;-63
2023/09/13 04:39:31;;;;;;;;;;;;;;;29.43;41.98;94235.38;4876941;29;9031;-63
2023/09/13 04:41:58;;;;;;;;;;;;;;;29.44;42.64;94234.88;4875871;29;7234;-63
2023/09/13 04:44:26;;;;;;;;;;;;;;;29.41;43.11;94224.09;4892596;29;9403;-63
2023/09/13 04:47:04;;;;;;;;;;;;;;;29.43;42.80;94229.84;4898876;29;8268;-62
2023/09/13 04:49:40;;;;;;;;;;;;;;;29.45;42.61;94227.31;4882636;29;8890;-63
2023/09/13 04:52:15;;;;;;;;;;;;;;;29.45;42.82;94230.06;4877155;29;7241;-62
2023/09/13 04:54:53;;;;;;;;;;;;;;;29.42;42.94;94228.38;4893927;29;8727;-62
2023/09/13 04:57:29;;;;;;;;;;;;;;;29.45;42.54;94233.56;4909460;29;7059;-63
2023/09/13 05:00:00;;;;;;;;;;;;;;;29.45;43.41;94241.88;4898955;29;7244;-63
2023/09/13 05:02:43;;;;;;;;;;;;;;;29.43;42.37;94238.16;4901444;29;7386;-63
2023/09/13 05:05:12;;;;;;;;;;;;;;;29.46;43.63;94248.16;4902145;29;7207;-63
2023/09/13 05:07:40;;;;;;;;;;;;;;;29.45;42.24;94261.28;4916127;29;9273;-62
2023/09/13 05:10:29;;;;;;;;;;;;;;;29.46;42.55;94262.03;4914289;29;7150;-62
2023/09/13 05:13:13;;;;;;;;;;;;;;;29.47;42.64;94258.72;4903394;29;9125;-63
2023/09/13 05:16:26;;;;;;;;;;;;;;;29.49;42.26;94250.59;5003775;28;7231;-63
2023/09/13 05:19:14;;;;;;;;;;;;;;;29.49;42.37;94256.13;4990575;28;7623;-63
2023/09/13 05:21:59;;;;;;;;;;;;;;;29.50;42.25;94254.13;4990719;28;7242;-63
2023/09/13 05:24:27;;;;;;;;;;;;;;;29.47;42.15;94252.44;4986872;28;7424;-63
2023/09/13 05:27:25;;;;;;;;;;;;;;;29.51;43.13;94267.47;4991906;28;7246;-63
2023/09/13 05:30:00;;;;;;;;;;;;;;;29.49;42.64;94269.28;4918341;29;7434;-63
2023/09/13 05:32:54;;;;;;;;;;;;;;;29.46;42.09;94259.25;4914156;29;7527;-62
2023/09/13 05:35:38;;;;;;;;;;;;;;;29.46;42.99;94254.47;4917853;29;7278;-63
2023/09/13 05:38:05;;;;;;;;;;;;;;;29.47;42.07;94257.97;4928359;29;7247;-62
2023/09/13 05:40:44;;;;;;;;;;;;;;;29.49;42.69;94256.13;4911349;29;8163;-62
2023/09/13 05:43:12;;;;;;;;;;;;;;;29.52;42.92;94257.09;4914782;29;7250;-62
2023/09/13 05:46:09;;;;;;;;;;;;;;;29.52;42.71;94251.53;4917318;29;9170;-61
2023/09/13 05:48:37;;;;;;;;;;;;;;;29.50;41.75;94254.13;4911051;29;7274;-61
2023/09/13 05:51:04;;;;;;;;;;;;;;;29.50;41.90;94241.00;4912205;29;7305;-61
2023/09/13 05:53:30;;;;;;;;;;;;;;;29.55;42.41;94247.72;4913700;29;8727;-61
2023/09/13 05:55:58;;;;;;;;;;;;;;;29.54;42.21;94246.22;4923729;28;7497;-61
2023/09/13 05:58:25;;;;;;;;;;;;;;;29.55;42.57;94245.69;4934092;28;7268;-61
2023/09/13 06:00:57;;;;;;;;;;;;;;;29.54;41.78;94248.97;4948123;28;8727;-62
2023/09/13 06:03:25;;;;;;;;;;;;;;;29.54;41.78;94244.19;4935068;28;7228;-61
2023/09/13 06:05:54;;;;;;;;;;;;;;;29.55;41.30;94256.78;4948038;28;7049;-61
2023/09/13 06:08:21;;;;;;;;;;;;;;;29.54;42.43;94255.28;4972810;28;7884;-61
2023/09/13 06:11:02;;;;;;;;;;;;;;;29.52;42.08;94260.63;4987871;28;7267;-61
2023/09/13 06:13:29;;;;;;;;;;;;;;;29.53;41.98;94253.81;4962892;28;7436;-62
2023/09/13 06:16:06;;;;;;;;;;;;;;;29.54;41.89;94260.81;4988540;28;8228;-62
2023/09/13 06:18:33;;;;;;;;;;;;;;;29.53;42.36;94251.03;4987029;28;7298;-61
2023/09/13 06:21:09;;;;;;;;;;;;;;;29.54;42.35;94240.66;4971510;28;9146;-62
2023/09/13 06:23:37;;;;;;;;;;;;;;;29.57;42.26;94245.88;4970301;28;7436;-62
2023/09/13 06:26:05;;;;;;;;;;;;;;;29.58;43.14;94243.88;5029372;28;7014;-63
2023/09/13 06:28:39;;;;;;;;;;;;;;;29.58;42.39;94249.41;5019898;28;7252;-61
2023/09/13 06:31:08;;;;;;;;;;;;;;;29.60;42.32;94246.84;5041387;28;6980;-62
2023/09/13 06:33:34;;;;;;;;;;;;;;;29.58;43.21;94244.59;5017749;28;7223;-63
2023/09/13 06:36:02;;;;;;;;;;;;;;;29.58;42.50;94244.59;5041776;28;8199;-61
2023/09/13 06:38:31;;;;;;;;;;;;;;;29.55;42.64;94256.03;5034324;28;7828;-62
2023/09/13 06:40:58;;;;;;;;;;;;;;;29.53;42.36;94259.34;5030280;28;6985;-62
2023/09/13 06:44:22;;;;;;;;;;;;;;;29.53;42.90;94259.34;5024117;28;7329;-62
2023/09/13 06:46:58;;;;;;;;;;;;;;;29.53;42.33;94253.06;5028741;28;8050;-62
2023/09/13 06:49:39;;;;;;;;;;;;;;;29.55;42.97;94256.03;5013876;28;7189;-61
2023/09/13 06:52:26;;;;;;;;;;;;;;;29.55;41.88;94254.00;5019003;28;7007;-62
2023/09/13 06:54:54;;;;;;;;;;;;;;;29.55;42.49;94256.03;5029211;28;7236;-65
2023/09/13 06:57:48;;;;;;;;;;;;;;;29.56;42.28;94252.69;5024234;28;6976;-66
2023/09/13 07:00:29;;;;;;;;;;;;;;;29.55;42.32;94256.03;5033567;28;6993;-64
2023/09/13 07:03:08;;;;;;;;;;;;;;;29.53;43.26;94258.59;5024435;28;7212;-66
2023/09/13 07:05:43;;;;;;;;;;;;;;;29.56;42.51;94260.25;5032726;28;7097;-66
2023/09/13 07:08:29;;;;;;;;;;;;;;;29.57;43.20;94256.22;5040200;28;7178;-65
2023/09/13 07:11:01;;;;;;;;;;;;;;;29.57;42.26;94264.53;5011418;28;7149;-65
2023/09/13 07:13:45;;;;;;;;;;;;;;;29.57;43.40;94268.06;5020660;28;7240;-65
2023/09/13 07:16:19;;;;;;;;;;;;;;;29.59;42.46;94273.81;5018195;28;8395;-66
2023/09/13 07:18:45;;;;;;;;;;;;;;;29.58;43.25;94266.03;5012872;28;7316;-65
2023/09/13 07:21:11;;;;;;;;;;;;;;;29.57;42.63;94268.06;5029820;28;7226;-66
2023/09/13 07:23:40;;;;;;;;;;;;;;;29.59;43.07;94273.81;5015403;28;7088;-65
2023/09/13 07:26:10;;;;;;;;;;;;;;;29.61;43.42;94278.81;5012211;28;7408;-65
2023/09/13 07:28:36;;;;;;;;;;;;;;;29.60;42.53;94286.38;5027890;28;7130;-65
2023/09/13 07:31:24;;;;;;;;;;;;;;;29.60;43.15;94285.66;5022258;28;6967;-65
2023/09/13 07:34:02;;;;;;;;;;;;;;;29.61;42.90;94287.13;5014616;28;7332;-65
2023/09/13 07:36:43;;;;;;;;;;;;;;;29.60;42.93;94291.19;5021819;28;8190;-65
2023/09/13 07:39:14;;;;;;;;;;;;;;;29.61;42.82;94292.66;5021562;28;9002;-66
2023/09/13 07:41:42;;;;;;;;;;;;;;;29.60;43.39;94291.91;5026956;28;9177;-65
2023/09/13 07:44:08;;;;;;;;;;;;;;;29.62;43.50;94300.44;5029095;28;8767;-65
2023/09/13 07:46:37;;;;;;;;;;;;;;;29.62;43.23;94316.34;5016547;28;6991;-64
2023/09/13 07:49:05;;;;;;;;;;;;;;;29.61;42.82;94310.03;5032018;28;7019;-65
2023/09/13 07:51:33;;;;;;;;;;;;;;;29.59;42.62;94317.41;5027241;28;7232;-64
2023/09/13 07:54:07;;;;;;;;;;;;;;;29.60;43.13;94313.38;5023397;28;6997;-65
2023/09/13 07:56:38;;;;;;;;;;;;;;;29.61;43.21;94312.81;5030441;28;7273;-64
2023/09/13 07:59:15;;;;;;;;;;;;;;;29.61;42.82;94320.38;5036569;28;7243;-64
2023/09/13 08:01:59;;;;;;;;;;;;;;;29.59;42.85;94325.72;5028795;28;6983;-65
2023/09/13 08:04:31;;;;;;;;;;;;;;;29.55;42.04;94328.09;5017270;28;6998;-61
2023/09/13 08:06:57;;;;;;;;;;;;;;;29.54;42.14;94326.59;5030981;28;9056;-61
2023/09/13 08:09:30;;;;;;;;;;;;;;;29.50;42.33;94326.19;5015826;28;9159;-60
2023/09/13 08:12:03;;;;;;;;;;;;;;;29.51;42.31;94325.66;5015341;28;6989;-61
2023/09/13 08:14:46;;;;;;;;;;;;;;;29.51;42.54;94330.44;5035448;28;7060;-61
2023/09/13 08:17:19;;;;;;;;;;;;;;;29.51;42.75;94333.22;5027865;28;7242;-60
2023/09/13 08:20:10;;;;;;;;;;;;;;;29.51;42.71;94338.75;5023643;28;7642;-61
2023/09/13 08:22:52;;;;;;;;;;;;;;;29.48;41.56;94348.13;5028144;28;9212;-61
2023/09/13 08:25:27;;;;;;;;;;;;;;;29.49;42.32;94346.88;5031142;28;9085;-61
2023/09/13 08:28:41;;;;;;;;;;;;;;;29.49;41.84;94358.69;5034391;28;7243;-61
2023/09/13 08:31:59;;;;;;;;;;;;;;;29.49;41.57;94364.22;5029722;28;7204;-61
2023/09/13 08:34:55;;;;;;;;;;;;;;;29.47;41.92;94369.56;4976227;28;6986;-61
2023/09/13 08:37:33;;;;;;;;;;;;;;;29.47;42.11;94372.31;4872559;29;7392;-61
2023/09/13 08:40:20;;;;;;;;;;;;;;;29.47;42.64;94383.41;4878316;29;7219;-61
2023/09/13 08:43:00;;;;;;;;;;;;;;;29.47;42.61;94371.59;4896874;29;9095;-61
2023/09/13 08:45:39;;;;;;;;;;;;;;;29.45;42.27;94363.09;4879443;29;6962;-61
2023/09/13 08:48:07;;;;;;;;;;;;;;;29.44;41.64;94367.88;4894010;29;7173;-61
2023/09/13 08:51:05;;;;;;;;;;;;;;;29.45;41.59;94369.34;4891147;29;6997;-62
2023/09/13 08:53:33;;;;;;;;;;;;;;;29.44;42.63;94378.97;4865822;29;7163;-62
2023/09/13 08:55:59;;;;;;;;;;;;;;;29.44;41.89;94375.44;4880122;29;7098;-62
2023/09/13 08:58:27;;;;;;;;;;;;;;;29.45;41.72;94379.72;4880705;29;7090;-62
2023/09/13 09:01:27;;;;;;;;;;;;;;;29.47;41.42;94379.91;4868300;29;6940;-61
2023/09/13 09:03:55;;;;;;;;;;;;;;;29.46;41.36;94384.72;4881155;29;8870;-61
2023/09/13 09:06:32;;;;;;;;;;;;;;;29.44;41.67;94380.97;4877794;29;7343;-62
2023/09/13 09:09:33;;;;;;;;;;;;;;;29.46;42.35;94381.19;4880420;29;7492;-62
2023/09/13 09:12:06;;;;;;;;;;;;;;;29.46;41.92;94384.72;4863593;29;7319;-61
2023/09/13 09:14:34;;;;;;;;;;;;;;;29.48;42.15;94384.16;4888524;29;9229;-57
2023/09/13 09:17:11;;;;;;;;;;;;;;;29.46;42.25;94389.50;4898988;29;6984;-57
2023/09/13 09:19:51;;;;;;;;;;;;;;;29.43;41.73;94385.03;4903202;29;7007;-57
2023/09/13 09:22:21;;;;;;;;;;;;;;;29.42;41.13;94386.31;4899257;29;9189;-57
2023/09/13 09:24:59;;;;;;;;;;;;;;;29.42;42.43;94386.31;4910601;29;7320;-57
2023/09/13 09:27:27;;;;;;;;;;;;;;;29.41;41.44;94384.81;4904793;29;9292;-57
2023/09/13 09:30:40;;;;;;;;;;;;;;;29.43;41.91;94393.34;4911957;29;7256;-57
2023/09/13 09:33:43;;;;;;;;;;;;;;;29.40;41.89;94391.66;4914515;29;7004;-57
2023/09/13 09:36:39;;;;;;;;;;;;;;;29.37;41.71;94403.78;4867677;29;7630;-57
2023/09/13 09:39:05;;;;;;;;;;;;;;;29.37;41.86;94396.25;4834923;29;7237;-57
2023/09/13 09:41:42;;;;;;;;;;;;;;;29.37;42.52;94393.47;4813863;29;6973;-57
2023/09/13 09:44:10;;;;;;;;;;;;;;;29.39;41.58;94392.91;4836402;29;9060;-57
2023/09/13 09:46:47;;;;;;;;;;;;;;;29.39;42.26;94392.91;4839206;29;7096;-57
2023/09/13 09:49:15;;;;;;;;;;;;;;;29.37;41.91;94401.78;4853694;29;7056;-57
2023/09/13 09:51:54;;;;;;;;;;;;;;;29.37;42.42;94403.78;4835764;29;7239;-57
2023/09/13 09:54:21;;;;;;;;;;;;;;;29.39;43.05;94406.78;4837444;29;7252;-57
2023/09/13 09:56:47;;;;;;;;;;;;;;;29.37;41.92;94409.34;4853644;29;6975;-57
2023/09/13 09:59:27;;;;;;;;;;;;;;;29.39;42.44;94409.53;4834198;29;7517;-57
2023/09/13 10:01:59;;;;;;;;;;;;;;;29.38;42.85;94403.28;4841324;29;6994;-57
2023/09/13 10:04:52;;;;;;;;;;;;;;;29.39;43.17;94398.47;4843452;29;7157;-58
2023/09/13 10:07:18;;;;;;;;;;;;;;;29.38;42.18;94394.22;4837289;29;7251;-57
2023/09/13 10:09:55;;;;;;;;;;;;;;;29.37;42.23;94409.34;4883254;28;7333;-57
2023/09/13 10:12:45;;;;;;;;;;;;;;;29.39;43.26;94410.28;4966945;28;7000;-57
2023/09/13 10:15:16;;;;;;;;;;;;;;;29.39;43.04;94404.75;4976733;28;7304;-57
2023/09/13 10:17:44;;;;;;;;;;;;;;;29.43;42.03;94404.41;5032816;28;7020;-57
2023/09/13 10:20:23;;;;;;;;;;;;;;;29.45;42.86;94402.59;5018082;28;7230;-57
2023/09/13 10:23:06;;;;;;;;;;;;;;;29.47;42.04;94397.28;5031060;28;7406;-57
2023/09/13 10:25:36;;;;;;;;;;;;;;;29.47;42.18;94400.03;5029251;28;7227;-64
2023/09/13 10:28:11;;;;;;;;;;;;;;;29.48;41.96;94406.34;5029853;28;7309;-64
2023/09/13 10:31:18;;;;;;;;;;;;;;;29.46;42.01;94398.56;5045718;28;7570;-64
2023/09/13 10:34:03;;;;;;;;;;;;;;;29.47;42.56;94399.31;4987652;28;9129;-64
2023/09/13 10:40:10;;;;;;;;;;;;;;;29.45;43.23;94402.59;4982609;28;8966;-64
2023/09/13 10:42:54;;;;;;;;;;;;;;;29.46;43.29;94403.34;4958419;28;9429;-64
2023/09/13 10:45:29;;;;;;;;;;;;;;;29.45;42.39;94401.88;4991005;28;7050;-64
2023/09/13 10:47:58;;;;;;;;;;;;;;;29.44;42.59;94398.34;4990042;28;7272;-64
2023/09/13 10:50:36;;;;;;;;;;;;;;;29.44;42.73;94401.13;4992659;28;8745;-64
2023/09/13 10:53:04;;;;;;;;;;;;;;;29.47;43.01;94404.88;4989942;28;7398;-64
2023/09/13 10:55:33;;;;;;;;;;;;;;;29.46;42.26;94406.88;4992702;28;7212;-64
2023/09/13 10:58:09;;;;;;;;;;;;;;;29.46;43.07;94398.56;4973936;28;8150;-64
2023/09/13 11:00:50;;;;;;;;;;;;;;;29.44;42.65;94403.16;4987005;28;7369;-65
2023/09/13 11:03:21;;;;;;;;;;;;;;;29.46;43.26;94403.34;4987904;28;7256;-64
2023/09/13 11:06:18;;;;;;;;;;;;;;;29.46;42.36;94404.09;5031857;28;7056;-64
2023/09/13 11:09:10;;;;;;;;;;;;;;;29.42;43.49;94402.94;5034398;28;7230;-64
2023/09/13 11:11:36;;;;;;;;;;;;;;;29.44;43.43;94411.47;5032124;28;7361;-63
2023/09/13 11:14:10;;;;;;;;;;;;;;;29.43;43.11;94409.97;5011274;28;7033;-63
2023/09/13 11:16:42;;;;;;;;;;;;;;;29.42;43.22;94414.03;5033098;28;7322;-63
2023/09/13 11:19:34;;;;;;;;;;;;;;;29.41;43.96;94406.97;5036453;28;9106;-64
2023/09/13 11:22:09;;;;;;;;;;;;;;;29.41;43.44;94406.97;5024624;28;8993;-64
2023/09/13 11:24:40;;;;;;;;;;;;;;;29.43;43.81;94412.72;5032884;28;7439;-64
2023/09/13 11:27:26;;;;;;;;;;;;;;;29.41;44.17;94413.28;5032766;28;7001;-64
2023/09/13 11:29:59;;;;;;;;;;;;;;;29.42;43.85;94417.56;5031712;28;6999;-64
2023/09/13 11:32:32;;;;;;;;;;;;;;;29.44;44.18;94417.00;5041470;28;7297;-64
2023/09/13 11:35:04;;;;;;;;;;;;;;;29.43;44.30;94415.50;5023542;28;7326;-57
2023/09/13 11:37:41;;;;;;;;;;;;;;;29.45;44.26;94415.75;5040121;28;6989;-57
2023/09/13 11:40:59;;;;;;;;;;;;;;;29.49;44.53;94407.84;5013562;28;7231;-57
2023/09/13 11:43:27;;;;;;;;;;;;;;;29.50;43.31;94417.63;4972243;28;8775;-57
2023/09/13 11:45:58;;;;;;;;;;;;;;;29.50;43.57;94415.59;4972430;28;7477;-57
2023/09/13 11:48:42;;;;;;;;;;;;;;;29.52;43.43;94424.13;4961084;28;7240;-57
2023/09/13 11:51:44;;;;;;;;;;;;;;;29.52;43.19;94420.59;4962209;28;7358;-57
2023/09/13 11:54:18;;;;;;;;;;;;;;;29.53;43.56;94419.34;4970172;28;7347;-57
2023/09/13 11:56:45;;;;;;;;;;;;;;;29.50;43.50;94423.94;4968274;28;7263;-58
2023/09/13 12:00:00;;;;;;;;;;;;;;;29.51;44.07;94419.88;4958557;28;7261;-58
2023/09/13 12:02:26;;;;;;;;;;;;;;;29.51;42.95;94419.13;4952057;28;8862;-57
2023/09/13 12:05:06;;;;;;;;;;;;;;;29.46;42.87;94409.66;4962835;28;9144;-57
2023/09/13 12:07:35;;;;;;;;;;;;;;;29.50;43.47;94420.41;4954801;28;8103;-58
2023/09/13 12:10:01;;;;;;;;;;;;;;;29.49;43.12;94416.16;4965048;28;8339;-58
2023/09/13 12:12:29;;;;;;;;;;;;;;;29.46;43.02;94414.44;4968449;28;9047;-58
2023/09/13 12:15:00;;;;;;;;;;;;;;;29.47;43.13;94419.44;4962478;28;7364;-57
2023/09/13 12:17:39;;;;;;;;;;;;;;;29.48;43.43;94423.72;4976798;28;7187;-57
2023/09/13 12:20:06;;;;;;;;;;;;;;;29.47;43.00;94418.72;5028630;28;6994;-58
2023/09/13 12:22:43;;;;;;;;;;;;;;;29.49;42.68;94424.47;5015435;28;7297;-57
2023/09/13 12:25:11;;;;;;;;;;;;;;;29.49;43.02;94430.72;5029203;28;7619;-57
2023/09/13 12:27:47;;;;;;;;;;;;;;;29.50;43.52;94425.94;5031652;28;7258;-57
2023/09/13 12:30:48;;;;;;;;;;;;;;;29.49;44.08;94427.97;5029662;28;9085;-57
2023/09/13 12:33:25;;;;;;;;;;;;;;;29.50;43.53;94425.94;4941938;28;7560;-57
2023/09/13 12:35:58;;;;;;;;;;;;;;;29.48;44.27;94417.41;4935732;28;7898;-57
2023/09/13 12:39:13;;;;;;;;;;;;;;;29.51;43.92;94416.34;4951795;28;8686;-57
2023/09/13 12:41:43;;;;;;;;;;;;;;;29.50;44.94;94410.06;4946261;28;7464;-57
2023/09/13 12:44:18;;;;;;;;;;;;;;;29.50;44.43;94410.06;4947404;28;7580;-61
2023/09/13 12:46:46;;;;;;;;;;;;;;;29.52;45.06;94409.53;4933383;28;7236;-62
2023/09/13 12:49:12;;;;;;;;;;;;;;;29.51;44.66;94417.09;4947919;28;6968;-62
2023/09/13 12:51:53;;;;;;;;;;;;;;;29.52;45.70;94412.28;4929365;29;7455;-62
2023/09/13 12:54:26;;;;;;;;;;;;;;;29.50;46.03;94409.31;4950819;28;9022;-61
2023/09/13 12:56:52;;;;;;;;;;;;;;;29.51;45.64;94406.03;4934245;28;9204;-62
2023/09/13 12:59:41;;;;;;;;;;;;;;;29.53;45.82;94408.25;4935639;28;6980;-62
2023/09/13 13:02:12;;;;;;;;;;;;;;;29.53;45.08;94409.00;4950486;28;8193;-62
2023/09/13 13:04:44;;;;;;;;;;;;;;;29.54;45.55;94409.72;4944365;28;7472;-63
2023/09/13 13:07:37;;;;;;;;;;;;;;;29.52;45.80;94407.50;4951261;28;7235;-62
2023/09/13 13:10:09;;;;;;;;;;;;;;;29.50;44.96;94403.78;5015179;28;7447;-62
2023/09/13 13:13:01;;;;;;;;;;;;;;;29.50;44.78;94403.78;5017383;28;7249;-61
2023/09/13 13:15:34;;;;;;;;;;;;;;;29.52;44.75;94401.97;5028143;28;7247;-62
2023/09/13 13:18:09;;;;;;;;;;;;;;;29.55;45.51;94402.91;5012769;28;7149;-61
2023/09/13 13:20:47;;;;;;;;;;;;;;;29.54;46.03;94390.31;5035874;28;7128;-62
2023/09/13 13:23:47;;;;;;;;;;;;;;;29.55;45.75;94392.59;5016430;28;9158;-62
2023/09/13 13:26:19;;;;;;;;;;;;;;;29.55;45.01;94394.59;4976362;28;7512;-62
2023/09/13 13:29:05;;;;;;;;;;;;;;;29.56;45.15;94394.06;4975213;28;7456;-61
2023/09/13 13:31:31;;;;;;;;;;;;;;;29.56;44.44;94396.06;4978478;28;7184;-62
2023/09/13 13:34:13;;;;;;;;;;;;;;;29.55;44.70;94389.81;4987208;28;7276;-62
2023/09/13 13:36:40;;;;;;;;;;;;;;;29.58;44.01;94391.50;4995000;28;7223;-61
2023/09/13 13:39:06;;;;;;;;;;;;;;;29.60;45.03;94399.28;4981396;28;7049;-62
2023/09/13 13:41:46;;;;;;;;;;;;;;;29.60;44.22;94386.16;4983958;28;7278;-62
2023/09/13 13:44:17;;;;;;;;;;;;;;;29.62;44.29;94388.41;4989823;28;7272;-62
2023/09/13 13:46:49;;;;;;;;;;;;;;;29.64;44.14;94388.59;4972552;28;6967;-62
2023/09/13 13:49:24;;;;;;;;;;;;;;;29.63;43.72;94385.09;4970391;28;6994;-62
2023/09/13 13:51:50;;;;;;;;;;;;;;;29.61;44.06;94390.44;4985665;28;6997;-63
2023/09/13 13:54:30;;;;;;;;;;;;;;;29.62;43.59;94385.63;4983700;28;7252;-61
2023/09/13 13:57:04;;;;;;;;;;;;;;;29.63;44.42;94387.84;4967920;28;6986;-65
2023/09/13 13:59:42;;;;;;;;;;;;;;;29.62;43.82;94383.59;4973452;28;7049;-65